createdAt,value
2022-11-24T00:01:25.001Z,96544.31
2022-11-24T00:03:56.951Z,96551.03
2022-11-24T00:06:23.911Z,96555.00
2022-11-24T00:08:50.457Z,96553.88
2022-11-24T00:11:19.470Z,96548.13
2022-11-24T00:13:48.700Z,96547.94
2022-11-24T00:16:16.605Z,96554.97
2022-11-24T00:18:45.274Z,96539.66
2022-11-24T00:21:12.132Z,96551.44
2022-11-24T00:23:39.193Z,96544.63
2022-11-24T00:26:13.927Z,96553.69
2022-11-24T00:28:41.224Z,96542.75
2022-11-24T00:31:21.371Z,96553.00
2022-11-24T00:33:49.923Z,96543.06
2022-11-24T00:36:17.152Z,96553.44
2022-11-24T00:38:44.444Z,96556.81
2022-11-24T00:41:14.677Z,96546.34
2022-11-24T00:43:43.269Z,96539.94
2022-11-24T00:46:09.809Z,96547.94
2022-11-24T00:48:36.349Z,96548.31
2022-11-24T00:51:05.909Z,96547.84
2022-11-24T00:53:32.430Z,96557.09
2022-11-24T00:55:58.860Z,96557.63
2022-11-24T00:58:25.753Z,96554.63
2022-11-24T01:00:55.017Z,96559.16
2022-11-24T01:03:22.021Z,96568.19
2022-11-24T01:05:49.079Z,96574.16
2022-11-24T01:08:15.596Z,96576.47
2022-11-24T01:10:42.018Z,96580.28
2022-11-24T01:13:08.513Z,96582.22
2022-11-24T01:15:39.181Z,96578.88
2022-11-24T01:18:06.220Z,96582.75
2022-11-24T01:20:32.785Z,96594.50
2022-11-24T01:22:59.282Z,96588.66
2022-11-24T01:25:25.783Z,96599.41
2022-11-24T01:27:52.504Z,96600.63
2022-11-24T01:30:19.067Z,96600.09
2022-11-24T01:32:45.490Z,96594.72
2022-11-24T01:35:11.911Z,96593.78
2022-11-24T01:37:38.347Z,96632.28
2022-11-24T01:40:05.752Z,96618.41
2022-11-24T01:42:45.185Z,96630.53
2022-11-24T01:45:35.166Z,96617.91
2022-11-24T01:48:06.025Z,96614.81
2022-11-24T01:50:35.586Z,96622.91
2022-11-24T01:53:02.136Z,96627.47
2022-11-24T01:55:37.693Z,96631.91
2022-11-24T01:58:18.850Z,96633.47
2022-11-24T02:00:46.973Z,96635.38
2022-11-24T02:03:17.403Z,96639.22
2022-11-24T02:06:16.450Z,96638.09
2022-11-24T02:08:51.066Z,96641.38
2022-11-24T02:11:19.210Z,96645.31
2022-11-24T02:13:46.360Z,96646.56
2022-11-24T02:16:15.526Z,96650.41
2022-11-24T02:18:43.154Z,96659.81
2022-11-24T02:21:11.936Z,96671.63
2022-11-24T02:23:50.447Z,96662.94
2022-11-24T02:26:19.742Z,96670.81
2022-11-24T02:28:46.979Z,96673.81
2022-11-24T02:31:13.840Z,96674.31
2022-11-24T02:33:40.915Z,96675.13
2022-11-24T02:36:07.662Z,96681.34
2022-11-24T02:38:35.462Z,96688.22
2022-11-24T02:41:15.033Z,96690.91
2022-11-24T02:43:46.083Z,96696.31
2022-11-24T02:46:12.540Z,96693.00
2022-11-24T02:48:39.335Z,96709.38
2022-11-24T02:51:06.007Z,96702.91
2022-11-24T02:53:32.454Z,96706.88
2022-11-24T02:56:01.292Z,96714.75
2022-11-24T02:58:27.948Z,96718.38
2022-11-24T03:00:55.111Z,96718.91
2022-11-24T03:03:21.890Z,96719.53
2022-11-24T03:05:48.523Z,96723.56
2022-11-24T03:08:19.822Z,96717.34
2022-11-24T03:10:46.395Z,96738.63
2022-11-24T03:13:12.845Z,96739.94
2022-11-24T03:15:39.300Z,96737.25
2022-11-24T03:18:05.899Z,96737.88
2022-11-24T03:20:32.517Z,96745.13
2022-11-24T03:22:58.920Z,96751.66
2022-11-24T03:25:25.366Z,96752.22
2022-11-24T03:27:51.787Z,96755.72
2022-11-24T03:30:20.582Z,96746.16
2022-11-24T03:32:47.047Z,96741.22
2022-11-24T03:35:13.447Z,96739.44
2022-11-24T03:37:39.862Z,96734.16
2022-11-24T03:40:06.920Z,96733.19
2022-11-24T03:42:33.530Z,96738.06
2022-11-24T03:45:16.700Z,96751.75
2022-11-24T03:47:50.461Z,96756.84
2022-11-24T03:50:17.213Z,96759.94
2022-11-24T03:52:43.606Z,96759.44
2022-11-24T03:55:10.033Z,96760.81
2022-11-24T03:57:36.462Z,96763.28
2022-11-24T04:00:03.775Z,96758.41
2022-11-24T04:02:30.229Z,96770.53
2022-11-24T04:04:56.713Z,96764.72
2022-11-24T04:07:23.145Z,96771.91
2022-11-24T04:09:49.619Z,96778.41
2022-11-24T04:12:34.520Z,96773.56
2022-11-24T04:15:00.956Z,96787.75
2022-11-24T04:17:28.535Z,96787.34
2022-11-24T04:19:54.939Z,96794.59
2022-11-24T04:22:21.349Z,96800.94
2022-11-24T04:24:47.826Z,96800.63
2022-11-24T04:27:14.286Z,96811.41
2022-11-24T04:29:40.757Z,96812.44
2022-11-24T04:32:07.169Z,96813.19
2022-11-24T04:34:36.302Z,96818.06
2022-11-24T04:37:05.446Z,96822.41
2022-11-24T04:39:34.276Z,96821.47
2022-11-24T04:42:03.168Z,96820.44
2022-11-24T04:44:32.483Z,96819.59
2022-11-24T04:46:59.281Z,96826.34
2022-11-24T04:49:28.149Z,96839.44
2022-11-24T04:51:54.591Z,96833.72
2022-11-24T04:54:21.070Z,96847.94
2022-11-24T04:56:51.644Z,96852.81
2022-11-24T04:59:18.945Z,96853.94
2022-11-24T05:01:48.303Z,96858.19
2022-11-24T05:04:16.005Z,96864.31
2022-11-24T05:06:42.625Z,96866.19
2022-11-24T05:09:15.390Z,96861.22
2022-11-24T05:11:44.311Z,96856.22
2022-11-24T05:14:13.118Z,96859.53
2022-11-24T05:16:39.654Z,96859.53
2022-11-24T05:19:06.190Z,96856.44
2022-11-24T05:21:32.679Z,96868.66
2022-11-24T05:23:59.118Z,96873.41
2022-11-24T05:26:26.891Z,96872.47
2022-11-24T05:28:53.532Z,96875.69
2022-11-24T05:31:20.212Z,96882.84
2022-11-24T05:33:46.779Z,96884.22
2022-11-24T05:36:34.071Z,96883.97
2022-11-24T05:39:01.198Z,96885.00
2022-11-24T05:41:27.733Z,96885.31
2022-11-24T05:43:54.260Z,96888.28
2022-11-24T05:46:23.014Z,96894.84
2022-11-24T05:48:49.595Z,96899.41
2022-11-24T05:51:15.992Z,96898.31
2022-11-24T05:53:44.695Z,96903.50
2022-11-24T05:56:11.090Z,96898.44
2022-11-24T05:58:37.507Z,96908.19
2022-11-24T06:01:06.879Z,96909.47
2022-11-24T06:03:33.881Z,96900.16
2022-11-24T06:06:00.328Z,96912.00
2022-11-24T06:08:30.908Z,96909.00
2022-11-24T06:11:19.934Z,96913.47
2022-11-24T06:13:50.713Z,96916.06
2022-11-24T06:16:17.360Z,96910.06
2022-11-24T06:18:43.915Z,96922.50
2022-11-24T06:21:11.777Z,96924.78
2022-11-24T06:23:39.323Z,96933.00
2022-11-24T06:26:09.297Z,96941.31
2022-11-24T06:28:36.301Z,96948.97
2022-11-24T06:31:03.741Z,96941.22
2022-11-24T06:33:34.738Z,96946.41
2022-11-24T06:36:07.397Z,96947.75
2022-11-24T06:38:35.442Z,96945.38
2022-11-24T06:41:03.955Z,96945.69
2022-11-24T06:43:31.026Z,96947.44
2022-11-24T06:45:57.986Z,96946.34
2022-11-24T06:48:25.666Z,96953.06
2022-11-24T06:50:52.209Z,96966.75
2022-11-24T06:53:19.237Z,96973.09
2022-11-24T06:55:47.005Z,96963.78
2022-11-24T06:58:13.473Z,96966.06
2022-11-24T07:00:39.990Z,96972.91
2022-11-24T07:03:06.683Z,96976.84
2022-11-24T07:05:33.157Z,96973.13
2022-11-24T07:08:00.544Z,96978.63
2022-11-24T07:10:27.231Z,96978.53
2022-11-24T07:12:53.683Z,96984.88
2022-11-24T07:15:20.177Z,96984.88
2022-11-24T07:17:46.577Z,96983.00
2022-11-24T07:20:13.154Z,96985.69
2022-11-24T07:22:39.564Z,96983.19
2022-11-24T07:25:09.557Z,96991.72
2022-11-24T07:27:36.378Z,96993.38
2022-11-24T07:30:05.853Z,96990.69
2022-11-24T07:32:32.930Z,96995.56
2022-11-24T07:34:59.752Z,96991.22
2022-11-24T07:37:31.259Z,97008.84
2022-11-24T07:39:58.484Z,97005.13
2022-11-24T07:42:24.895Z,97011.13
2022-11-24T07:44:53.668Z,97005.22
2022-11-24T07:47:20.104Z,97010.53
2022-11-24T07:49:46.571Z,97015.09
2022-11-24T07:52:15.378Z,97009.69
2022-11-24T07:54:41.808Z,97007.22
2022-11-24T07:57:08.199Z,97004.47
2022-11-24T07:59:34.656Z,97008.63
2022-11-24T08:02:01.647Z,97006.34
2022-11-24T08:04:28.140Z,97003.00
2022-11-24T08:06:54.600Z,97012.22
2022-11-24T08:09:21.088Z,97006.59
2022-11-24T08:11:47.513Z,97010.00
2022-11-24T08:14:13.954Z,97013.31
2022-11-24T08:16:40.537Z,97013.09
2022-11-24T08:19:07.013Z,97010.16
2022-11-24T08:21:33.688Z,97015.81
2022-11-24T08:24:00.089Z,97014.53
2022-11-24T08:26:26.809Z,97009.06
2022-11-24T08:28:58.164Z,97014.09
2022-11-24T08:31:32.475Z,97010.97
2022-11-24T08:33:59.875Z,97015.06
2022-11-24T08:36:26.463Z,97011.72
2022-11-24T08:38:59.710Z,97015.00
2022-11-24T08:41:27.681Z,97006.97
2022-11-24T08:43:57.958Z,97010.72
2022-11-24T08:46:24.622Z,97022.91
2022-11-24T08:48:53.635Z,97022.13
2022-11-24T08:51:23.026Z,97020.66
2022-11-24T08:53:49.521Z,97023.63
2022-11-24T08:56:16.029Z,97026.97
2022-11-24T08:58:42.690Z,97027.94
2022-11-24T09:01:15.348Z,97027.22
2022-11-24T09:03:48.538Z,97025.94
2022-11-24T09:06:25.275Z,97025.84
2022-11-24T09:08:53.939Z,97027.75
2022-11-24T09:11:20.563Z,97031.75
2022-11-24T09:13:47.145Z,97030.38
2022-11-24T09:16:16.663Z,97029.28
2022-11-24T09:18:43.967Z,97042.81
2022-11-24T09:21:19.443Z,97042.28
2022-11-24T09:23:51.102Z,97038.28
2022-11-24T09:26:28.008Z,97045.09
2022-11-24T09:28:55.958Z,97042.19
2022-11-24T09:31:28.981Z,97043.59
2022-11-24T09:33:59.400Z,97044.28
2022-11-24T09:36:26.298Z,97044.59
2022-11-24T09:38:52.755Z,97047.22
2022-11-24T09:41:40.555Z,97052.00
2022-11-24T09:44:28.872Z,97043.34
2022-11-24T09:46:58.864Z,97060.78
2022-11-24T09:49:51.677Z,97049.56
2022-11-24T09:52:32.254Z,97054.44
2022-11-24T09:55:03.515Z,97061.34
2022-11-24T09:57:37.536Z,97056.75
2022-11-24T10:00:13.271Z,97060.66
2022-11-24T10:02:39.816Z,97048.41
2022-11-24T10:05:06.860Z,97054.72
2022-11-24T10:07:42.506Z,97052.34
2022-11-24T10:10:12.043Z,97054.22
2022-11-24T10:12:50.672Z,97050.56
2022-11-24T10:15:21.597Z,97048.75
2022-11-24T10:17:57.148Z,97056.19
2022-11-24T10:20:54.793Z,97060.88
2022-11-24T10:24:02.378Z,97057.28
2022-11-24T10:26:42.559Z,97054.28
2022-11-24T10:29:35.168Z,97054.22
2022-11-24T10:32:07.523Z,97039.75
2022-11-24T10:34:37.802Z,97050.78
2022-11-24T10:37:19.444Z,97049.75
2022-11-24T10:40:03.930Z,97049.22
2022-11-24T10:42:38.345Z,97043.78
2022-11-24T10:45:19.397Z,97041.63
2022-11-24T10:47:46.863Z,97042.97
2022-11-24T10:50:28.150Z,97038.78
2022-11-24T10:53:03.831Z,97035.75
2022-11-24T10:55:55.468Z,97044.69
2022-11-24T10:58:26.770Z,97037.63
2022-11-24T11:00:54.710Z,97037.88
2022-11-24T11:03:22.529Z,97042.09
2022-11-24T11:05:55.783Z,97044.50
2022-11-24T11:08:32.013Z,97047.97
2022-11-24T11:11:16.657Z,97046.44
2022-11-24T11:14:04.632Z,97043.41
2022-11-24T11:16:46.101Z,97045.19
2022-11-24T11:19:49.555Z,97040.53
2022-11-24T11:22:28.445Z,97039.25
2022-11-24T11:25:09.494Z,97049.97
2022-11-24T11:27:36.845Z,97055.16
2022-11-24T11:36:11.159Z,97046.22
2022-11-24T11:38:39.291Z,97050.31
2022-11-24T11:41:13.005Z,97048.41
2022-11-24T11:43:41.012Z,97049.75
2022-11-24T11:46:18.137Z,97049.38
2022-11-24T11:48:46.842Z,97044.34
2022-11-24T11:51:24.242Z,97042.97
2022-11-24T11:53:57.827Z,97042.09
2022-11-24T11:56:25.922Z,97047.16
2022-11-24T11:59:00.385Z,97040.19
2022-11-24T12:02:00.793Z,97053.94
2022-11-24T12:04:36.676Z,97045.75
2022-11-24T12:07:22.309Z,97047.31
2022-11-24T12:10:15.796Z,97065.38
2022-11-24T12:13:24.554Z,97086.31
2022-11-24T12:15:57.834Z,97102.31
2022-11-24T12:18:56.976Z,97109.38
2022-11-24T12:21:46.172Z,97105.50
2022-11-24T12:24:28.085Z,97106.16
2022-11-24T12:27:05.553Z,97108.88
2022-11-24T12:30:01.238Z,97105.06
2022-11-24T12:32:49.511Z,97103.88
2022-11-24T12:35:37.602Z,97099.59
2022-11-24T12:38:16.238Z,97110.69
2022-11-24T12:41:33.542Z,97107.97
2022-11-24T12:43:52.980Z,97105.56
2022-11-24T12:46:52.070Z,97110.25
2022-11-24T12:49:24.594Z,97103.88
2022-11-24T12:52:27.079Z,97110.00
2022-11-24T12:54:55.938Z,97110.91
2022-11-24T12:57:34.282Z,97123.22
2022-11-24T13:00:07.894Z,97106.53
2022-11-24T13:03:11.272Z,97120.81
2022-11-24T13:05:58.705Z,97111.56
2022-11-24T13:08:27.975Z,97107.63
2022-11-24T13:10:56.396Z,97109.47
2022-11-24T13:13:29.845Z,97112.28
2022-11-24T13:16:20.568Z,97111.50
2022-11-24T13:19:21.466Z,97113.63
2022-11-24T13:21:56.586Z,97115.44
2022-11-24T13:24:26.376Z,97109.53
2022-11-24T13:27:15.187Z,97116.84
2022-11-24T13:29:43.933Z,97111.16
2022-11-24T13:32:30.318Z,97111.28
2022-11-24T13:35:04.056Z,97114.72
2022-11-24T13:37:34.948Z,97115.66
2022-11-24T13:40:22.606Z,97115.44
2022-11-24T13:42:58.753Z,97113.31
2022-11-24T13:45:49.793Z,97115.97
2022-11-24T13:48:19.379Z,97122.41
2022-11-24T13:50:56.038Z,97122.53
2022-11-24T13:53:36.379Z,97128.22
2022-11-24T13:56:02.926Z,97135.44
2022-11-24T13:58:54.952Z,97145.88
2022-11-24T14:01:33.154Z,97139.50
2022-11-24T14:04:33.078Z,97146.78
2022-11-24T14:07:09.000Z,97159.75
2022-11-24T14:09:50.167Z,97156.63
2022-11-24T14:12:20.184Z,97163.72
2022-11-24T14:14:51.142Z,97164.97
2022-11-24T14:17:27.678Z,97164.97
2022-11-24T14:19:58.298Z,97172.31
2022-11-24T14:22:36.444Z,97172.00
2022-11-24T14:25:03.719Z,97174.38
2022-11-24T14:27:40.046Z,97179.16
2022-11-24T14:30:09.475Z,97191.16
2022-11-24T14:32:37.730Z,97190.03
2022-11-24T14:35:24.564Z,97197.38
2022-11-24T14:37:51.315Z,97195.25
2022-11-24T14:40:36.963Z,97192.69
2022-11-24T14:43:05.704Z,97184.47
2022-11-24T14:45:34.437Z,97187.38
2022-11-24T14:48:00.931Z,97180.19
2022-11-24T14:50:27.622Z,97185.34
2022-11-24T14:52:58.528Z,97185.09
2022-11-24T14:55:32.909Z,97185.75
2022-11-24T14:58:00.021Z,97193.56
2022-11-24T15:00:32.333Z,97194.91
2022-11-24T15:03:01.789Z,97190.88
2022-11-24T15:05:50.288Z,97202.22
2022-11-24T15:08:19.717Z,97210.75
2022-11-24T15:10:46.711Z,97220.44
2022-11-24T15:13:22.573Z,97211.16
2022-11-24T15:16:01.806Z,97218.38
2022-11-24T15:18:42.274Z,97223.44
2022-11-24T15:21:18.943Z,97223.25
2022-11-24T15:24:05.202Z,97221.78
2022-11-24T15:26:35.458Z,97221.78
2022-11-24T15:29:04.891Z,97231.38
2022-11-24T15:31:32.206Z,97222.84
2022-11-24T15:33:58.786Z,97233.66
2022-11-24T15:36:25.256Z,97233.00
2022-11-24T15:38:52.219Z,97235.13
2022-11-24T15:41:24.727Z,97238.00
2022-11-24T15:43:58.579Z,97242.38
2022-11-24T15:46:29.887Z,97246.63
2022-11-24T15:48:57.277Z,97251.91
2022-11-24T15:51:26.426Z,97263.56
2022-11-24T15:54:00.333Z,97263.97
2022-11-24T15:56:35.655Z,97277.28
2022-11-24T15:59:02.923Z,97277.34
2022-11-24T16:01:32.366Z,97279.28
2022-11-24T16:04:01.613Z,97282.25
2022-11-24T16:06:28.154Z,97285.38
2022-11-24T16:08:58.107Z,97290.59
2022-11-24T16:11:24.599Z,97291.47
2022-11-24T16:13:53.779Z,97301.22
2022-11-24T16:16:23.042Z,97302.91
2022-11-24T16:18:49.625Z,97310.13
2022-11-24T16:21:16.237Z,97303.44
2022-11-24T16:23:42.706Z,97301.38
2022-11-24T16:26:10.254Z,97300.31
2022-11-24T16:28:40.654Z,97318.22
2022-11-24T16:31:07.256Z,97324.81
2022-11-24T16:33:40.548Z,97321.03
2022-11-24T16:36:08.008Z,97330.97
2022-11-24T16:38:35.485Z,97325.38
2022-11-24T16:41:01.944Z,97325.47
2022-11-24T16:43:29.282Z,97322.06
2022-11-24T16:46:14.232Z,97327.53
2022-11-24T16:48:40.764Z,97330.22
2022-11-24T16:51:11.691Z,97329.94
2022-11-24T16:53:40.933Z,97326.88
2022-11-24T16:56:07.776Z,97327.34
2022-11-24T16:58:37.622Z,97324.03
2022-11-24T17:01:05.860Z,97331.53
2022-11-24T17:03:33.807Z,97335.81
2022-11-24T17:06:01.127Z,97333.75
2022-11-24T17:08:31.087Z,97339.31
2022-11-24T17:11:04.425Z,97328.00
2022-11-24T17:13:32.751Z,97335.81
2022-11-24T17:15:59.197Z,97329.47
2022-11-24T17:18:25.845Z,97335.03
2022-11-24T17:20:52.394Z,97336.16
2022-11-24T17:23:19.745Z,97340.88
2022-11-24T17:25:48.419Z,97343.56
2022-11-24T17:28:15.077Z,97340.59
2022-11-24T17:30:43.832Z,97344.47
2022-11-24T17:33:10.551Z,97344.84
2022-11-24T17:35:37.438Z,97339.94
2022-11-24T17:38:04.357Z,97337.78
2022-11-24T17:40:30.865Z,97345.84
2022-11-24T17:42:59.242Z,97352.06
2022-11-24T17:45:27.083Z,97355.03
2022-11-24T17:47:56.153Z,97362.81
2022-11-24T17:50:26.387Z,97356.13
2022-11-24T17:52:53.967Z,97355.03
2022-11-24T17:55:20.815Z,97358.44
2022-11-24T17:57:47.375Z,97347.97
2022-11-24T18:00:14.676Z,97356.59
2022-11-24T18:02:41.249Z,97365.47
2022-11-24T18:05:08.302Z,97371.63
2022-11-24T18:07:40.250Z,97370.06
2022-11-24T18:10:07.485Z,97372.53
2022-11-24T18:12:34.344Z,97368.84
2022-11-24T18:15:03.185Z,97372.59
2022-11-24T18:17:29.692Z,97376.84
2022-11-24T18:19:56.260Z,97369.50
2022-11-24T18:22:43.097Z,97373.03
2022-11-24T18:25:10.085Z,97381.00
2022-11-24T18:27:38.900Z,97381.47
2022-11-24T18:30:06.207Z,97380.28
2022-11-24T18:32:33.020Z,97370.81
2022-11-24T18:34:59.506Z,97376.56
2022-11-24T18:37:30.575Z,97370.91
2022-11-24T18:39:57.209Z,97378.91
2022-11-24T18:42:25.899Z,97371.75
2022-11-24T18:44:57.488Z,97370.06
2022-11-24T18:47:24.389Z,97380.78
2022-11-24T18:49:51.052Z,97378.28
2022-11-24T18:52:17.595Z,97367.44
2022-11-24T18:54:44.137Z,97373.06
2022-11-24T18:57:10.675Z,97368.00
2022-11-24T18:59:37.289Z,97363.56
2022-11-24T19:02:03.770Z,97356.88
2022-11-24T19:04:30.247Z,97357.63
2022-11-24T19:06:57.023Z,97359.72
2022-11-24T19:09:25.394Z,97366.31
2022-11-24T19:11:51.933Z,97366.19
2022-11-24T19:14:20.847Z,97367.66
2022-11-24T19:16:50.319Z,97371.44
2022-11-24T19:19:17.275Z,97375.75
2022-11-24T19:21:44.433Z,97381.16
2022-11-24T19:24:11.790Z,97381.63
2022-11-24T19:26:39.115Z,97374.94
2022-11-24T19:29:06.688Z,97366.09
2022-11-24T19:31:34.526Z,97382.06
2022-11-24T19:34:02.946Z,97374.72
2022-11-24T19:36:29.694Z,97381.50
2022-11-24T19:38:57.873Z,97375.56
2022-11-24T19:41:29.591Z,97381.88
2022-11-24T19:43:59.075Z,97384.13
2022-11-24T19:46:29.261Z,97386.59
2022-11-24T19:48:58.591Z,97379.00
2022-11-24T19:51:33.011Z,97379.81
2022-11-24T19:54:00.314Z,97381.56
2022-11-24T19:56:29.752Z,97380.31
2022-11-24T19:58:56.586Z,97378.34
2022-11-24T20:01:34.302Z,97376.00
2022-11-24T20:04:03.154Z,97387.34
2022-11-24T20:06:33.452Z,97389.34
2022-11-24T20:09:06.314Z,97391.84
2022-11-24T20:11:33.195Z,97391.06
2022-11-24T20:14:02.464Z,97398.84
2022-11-24T20:16:31.203Z,97404.69
2022-11-24T20:19:00.069Z,97405.22
2022-11-24T20:21:28.974Z,97393.28
2022-11-24T20:24:07.755Z,97397.38
2022-11-24T20:26:38.177Z,97402.69
2022-11-24T20:29:09.846Z,97403.00
2022-11-24T20:31:39.178Z,97408.22
2022-11-24T20:34:07.477Z,97414.09
2022-11-24T20:36:36.372Z,97407.19
2022-11-24T20:39:07.198Z,97401.34
2022-11-24T20:41:38.845Z,97395.88
2022-11-24T20:44:10.505Z,97398.41
2022-11-24T20:46:39.230Z,97404.00
2022-11-24T20:49:09.968Z,97394.91
2022-11-24T20:51:39.752Z,97399.03
2022-11-24T20:54:08.516Z,97402.59
2022-11-24T20:56:37.669Z,97398.16
2022-11-24T20:59:04.732Z,97401.94
2022-11-24T21:01:38.446Z,97400.84
2022-11-24T21:04:11.417Z,97401.78
2022-11-24T21:06:40.832Z,97395.41
2022-11-24T21:09:09.259Z,97415.28
2022-11-24T21:11:39.284Z,97399.78
2022-11-24T21:14:06.726Z,97407.03
2022-11-24T21:16:36.336Z,97409.34
2022-11-24T21:19:11.805Z,97405.69
2022-11-24T21:21:39.673Z,97403.47
2022-11-24T21:24:11.949Z,97405.94
2022-11-24T21:26:39.791Z,97406.94
2022-11-24T21:29:07.273Z,97407.84
2022-11-24T21:31:38.296Z,97410.28
2022-11-24T21:34:05.906Z,97406.28
2022-11-24T21:36:35.770Z,97413.06
2022-11-24T21:39:03.622Z,97408.56
2022-11-24T21:41:33.213Z,97412.03
2022-11-24T21:43:59.959Z,97405.06
2022-11-24T21:46:28.409Z,97410.50
2022-11-24T21:48:54.833Z,97411.28
2022-11-24T21:51:21.336Z,97404.91
2022-11-24T21:53:48.494Z,97412.31
2022-11-24T21:56:20.392Z,97407.72
2022-11-24T21:58:52.162Z,97412.56
2022-11-24T22:01:21.036Z,97404.50
2022-11-24T22:03:47.537Z,97416.56
2022-11-24T22:06:19.012Z,97409.47
2022-11-24T22:08:49.163Z,97403.91
2022-11-24T22:11:25.887Z,97411.06
2022-11-24T22:13:55.089Z,97411.13
2022-11-24T22:16:24.013Z,97410.31
2022-11-24T22:18:51.477Z,97411.00
2022-11-24T22:21:23.657Z,97404.88
2022-11-24T22:23:53.618Z,97409.28
2022-11-24T22:26:22.477Z,97409.19
2022-11-24T22:28:49.734Z,97405.22
2022-11-24T22:31:17.260Z,97405.78
2022-11-24T22:33:44.422Z,97403.16
2022-11-24T22:36:12.733Z,97401.59
2022-11-24T22:38:40.261Z,97406.13
2022-11-24T22:41:15.021Z,97405.94
2022-11-24T22:43:44.742Z,97421.25
2022-11-24T22:46:13.753Z,97416.81
2022-11-24T22:48:41.065Z,97415.31
2022-11-24T22:51:11.892Z,97417.84
2022-11-24T22:53:38.679Z,97423.75
2022-11-24T22:56:07.600Z,97424.66
2022-11-24T22:58:34.189Z,97418.56
2022-11-24T23:01:11.525Z,97419.28
2022-11-24T23:03:38.836Z,97412.31
2022-11-24T23:06:08.422Z,97417.66
2022-11-24T23:08:37.304Z,97419.63
2022-11-24T23:11:09.788Z,97417.84
2022-11-24T23:13:36.605Z,97416.78
2022-11-24T23:16:05.980Z,97413.06
2022-11-24T23:18:32.674Z,97402.88
2022-11-24T23:21:26.653Z,97411.50
2022-11-24T23:23:55.927Z,97402.16
2022-11-24T23:26:28.223Z,97414.03
2022-11-24T23:28:57.028Z,97411.63
2022-11-24T23:31:28.847Z,97410.47
2022-11-24T23:33:57.594Z,97412.69
2022-11-24T23:36:24.319Z,97408.16
2022-11-24T23:38:53.102Z,97404.69
2022-11-24T23:41:25.297Z,97406.56
2022-11-24T23:43:52.738Z,97403.22
2022-11-24T23:46:24.170Z,97402.13
2022-11-24T23:48:52.191Z,97401.97
2022-11-24T23:51:19.798Z,97397.19
2022-11-24T23:53:46.896Z,97389.38
2022-11-24T23:56:19.238Z,97399.22
2022-11-24T23:58:45.975Z,97389.47
